createdAt,value
2023-03-11T00:02:21.954Z,0.90
2023-03-11T00:04:53.285Z,1.10
2023-03-11T00:07:26.689Z,1.20
2023-03-11T00:09:57.933Z,1.10
2023-03-11T00:12:26.763Z,1.00
2023-03-11T00:14:58.457Z,0.97
2023-03-11T00:17:33.163Z,1.20
2023-03-11T00:20:30.628Z,0.97
2023-03-11T00:32:18.757Z,1.30
2023-03-11T00:34:56.959Z,1.20
2023-03-11T00:37:41.053Z,1.10
2023-03-11T00:40:18.089Z,1.30
2023-03-11T00:42:50.706Z,1.10
2023-03-11T00:45:28.018Z,1.03
2023-03-11T00:48:00.205Z,1.60
2023-03-11T00:50:38.170Z,1.30
2023-03-11T00:53:15.389Z,0.97
2023-03-11T00:55:45.932Z,1.70
2023-03-11T00:58:17.603Z,1.20
2023-03-11T01:00:56.222Z,1.13
2023-03-11T01:03:28.889Z,1.23
2023-03-11T01:06:07.596Z,1.10
2023-03-11T01:08:40.134Z,1.10
2023-03-11T01:11:14.826Z,1.20
2023-03-11T01:13:52.145Z,1.20
2023-03-11T01:16:29.414Z,1.33
2023-03-11T01:19:04.503Z,1.17
2023-03-11T01:21:40.906Z,1.37
2023-03-11T01:24:17.166Z,1.27
2023-03-11T01:26:57.339Z,1.17
2023-03-11T01:29:35.641Z,1.33
2023-03-11T01:32:16.273Z,1.20
2023-03-11T01:34:58.729Z,1.17
2023-03-11T01:37:29.865Z,1.60
2023-03-11T01:40:12.239Z,1.13
2023-03-11T01:42:45.910Z,1.13
2023-03-11T01:46:08.688Z,1.10
2023-03-11T01:48:46.487Z,0.90
2023-03-11T01:51:28.427Z,1.33
2023-03-11T01:54:16.594Z,0.90
2023-03-11T01:57:12.284Z,0.90
2023-03-11T02:00:14.004Z,1.03
2023-03-11T02:02:59.200Z,1.03
2023-03-11T02:08:35.637Z,1.00
2023-03-11T02:11:13.978Z,0.97
2023-03-11T02:14:04.174Z,0.97
2023-03-11T02:16:46.288Z,0.93
2023-03-11T02:19:47.716Z,0.90
2023-03-11T02:28:46.050Z,0.83
2023-03-11T02:31:34.294Z,0.77
2023-03-11T02:34:18.289Z,0.73
2023-03-11T02:39:59.241Z,0.90
2023-03-11T02:42:37.706Z,0.93
2023-03-11T02:48:17.129Z,0.90
2023-03-11T02:50:59.089Z,0.80
2023-03-11T02:53:41.174Z,1.07
2023-03-11T02:56:22.369Z,1.00
2023-03-11T03:01:56.690Z,0.87
2023-03-11T03:07:30.386Z,0.70
2023-03-11T03:10:08.694Z,0.90
2023-03-11T03:12:45.032Z,0.60
2023-03-11T03:18:34.923Z,1.20
2023-03-11T03:21:21.643Z,1.13
2023-03-11T03:24:01.346Z,0.97
2023-03-11T03:27:00.310Z,1.43
2023-03-11T03:29:35.979Z,1.07
2023-03-11T03:32:10.107Z,0.90
2023-03-11T03:34:54.082Z,1.67
2023-03-11T03:37:38.982Z,0.87
2023-03-11T03:43:27.275Z,0.67
2023-03-11T03:46:04.124Z,1.33
2023-03-11T03:48:50.523Z,0.97
2023-03-11T03:51:26.856Z,0.90
2023-03-11T03:54:28.279Z,0.70
2023-03-11T03:57:19.436Z,1.00
2023-03-11T03:59:58.453Z,0.90
2023-03-11T04:05:35.457Z,1.13
2023-03-11T04:08:18.569Z,1.10
2023-03-11T04:11:03.271Z,0.93
2023-03-11T04:16:50.375Z,0.97
2023-03-11T04:19:39.107Z,1.03
2023-03-11T04:22:23.244Z,0.63
2023-03-11T04:25:06.602Z,0.80
2023-03-11T04:27:47.039Z,0.93
2023-03-11T04:36:47.697Z,1.47
2023-03-11T04:39:27.256Z,1.27
2023-03-11T04:42:05.244Z,1.20
2023-03-11T04:44:47.911Z,0.80
2023-03-11T04:47:23.995Z,1.40
2023-03-11T04:50:07.382Z,0.97
2023-03-11T04:52:42.366Z,1.17
2023-03-11T04:55:35.106Z,1.17
2023-03-11T04:58:20.251Z,0.97
2023-03-11T05:01:08.854Z,1.40
2023-03-11T05:03:50.039Z,1.10
2023-03-11T05:06:26.141Z,0.97
2023-03-11T05:09:04.249Z,1.00
2023-03-11T05:11:42.845Z,0.93
2023-03-11T05:14:31.490Z,0.90
2023-03-11T05:17:17.667Z,1.10
2023-03-11T05:33:53.479Z,0.90
2023-03-11T05:36:34.610Z,1.03
2023-03-11T05:40:05.660Z,1.03
2023-03-11T05:43:38.194Z,0.90
2023-03-11T05:49:46.254Z,1.40
2023-03-11T05:52:47.808Z,1.40
2023-03-11T05:55:42.796Z,1.27
2023-03-11T05:59:03.908Z,2.03
2023-03-11T06:01:56.709Z,1.17
2023-03-11T06:05:58.538Z,1.60
2023-03-11T06:09:00.739Z,1.47
2023-03-11T06:11:48.246Z,1.27
2023-03-11T06:17:39.133Z,1.23
2023-03-11T06:20:55.184Z,1.33
2023-03-11T06:24:19.900Z,1.20
2023-03-11T06:27:42.824Z,2.50
2023-03-11T06:30:56.927Z,2.37
2023-03-11T06:41:36.431Z,1.63
2023-03-11T06:48:32.971Z,2.17
2023-03-11T06:51:40.786Z,2.13
2023-03-11T06:55:07.552Z,1.70
2023-03-11T07:01:50.413Z,1.07
2023-03-11T07:15:54.389Z,3.17
2023-03-11T08:10:13.540Z,1.00
2023-03-11T08:19:11.387Z,1.03
2023-03-11T08:22:17.321Z,1.40
2023-03-11T08:25:16.691Z,1.20
2023-03-11T08:31:33.998Z,1.03
2023-03-11T08:34:36.518Z,1.30
2023-03-11T08:37:12.712Z,1.17
2023-03-11T08:39:59.488Z,0.90
2023-03-11T08:42:53.451Z,1.60
2023-03-11T08:45:58.778Z,1.20
2023-03-11T08:49:01.499Z,1.27
2023-03-11T08:51:53.788Z,1.60
2023-03-11T08:54:54.169Z,1.27
2023-03-11T08:57:55.011Z,1.03
2023-03-11T09:00:35.795Z,1.50
2023-03-11T09:03:16.424Z,1.23
2023-03-11T09:05:52.693Z,2.03
2023-03-11T09:08:28.040Z,0.87
2023-03-11T09:11:01.668Z,1.00
2023-03-11T09:14:01.320Z,2.23
2023-03-11T09:16:36.924Z,1.20
2023-03-11T09:19:09.192Z,1.20
2023-03-11T09:21:42.112Z,1.17
2023-03-11T09:24:13.085Z,0.80
2023-03-11T09:26:45.005Z,1.40
2023-03-11T09:29:13.702Z,1.70
2023-03-11T09:41:57.817Z,1.07
2023-03-11T09:45:47.550Z,1.10
2023-03-11T09:49:12.568Z,2.30
2023-03-11T09:59:26.018Z,1.50
2023-03-11T10:01:56.044Z,1.07
2023-03-11T10:04:37.998Z,0.87
2023-03-11T10:07:37.114Z,1.30
2023-03-11T10:10:16.331Z,1.30
2023-03-11T10:13:06.650Z,1.00
2023-03-11T10:15:49.450Z,1.00
2023-03-11T10:18:48.303Z,1.10
2023-03-11T11:48:31.736Z,2.53
2023-03-11T11:51:04.293Z,0.97
2023-03-11T11:53:43.217Z,1.27
2023-03-11T12:05:32.784Z,1.48
2023-03-11T12:08:18.611Z,1.80
2023-03-11T12:10:57.826Z,1.20
2023-03-11T12:13:55.761Z,0.95
2023-03-11T12:16:43.390Z,1.30
2023-03-11T12:19:34.838Z,1.30
2023-03-11T12:22:52.121Z,1.23
2023-03-11T12:25:29.937Z,1.25
2023-03-11T12:28:09.401Z,1.40
2023-03-11T12:30:44.904Z,1.60
2023-03-11T12:33:20.722Z,1.58
2023-03-11T12:35:54.061Z,1.58
2023-03-11T12:38:32.858Z,1.77
2023-03-11T12:41:08.147Z,3.55
2023-03-11T12:44:25.990Z,1.40
2023-03-11T12:47:20.104Z,5.15
2023-03-11T12:49:51.730Z,1.67
2023-03-11T12:52:30.519Z,1.35
2023-03-11T12:55:33.112Z,2.70
2023-03-11T12:58:37.283Z,1.75
2023-03-11T13:01:40.487Z,2.58
2023-03-11T13:04:26.851Z,1.20
2023-03-11T13:07:40.025Z,1.23
2023-03-11T17:38:00.739Z,1.50
2023-03-11T17:40:30.471Z,3.20
2023-03-11T17:42:58.907Z,13.63
2023-03-11T17:45:27.602Z,26.57
2023-03-11T17:47:55.672Z,41.57
2023-03-11T17:50:23.916Z,57.93
2023-03-11T17:52:52.264Z,54.30
2023-03-11T17:55:23.134Z,44.57
2023-03-11T17:57:51.406Z,27.20
2023-03-11T18:00:20.721Z,11.70
2023-03-11T18:02:51.245Z,8.53
2023-03-11T18:05:19.709Z,7.63
2023-03-11T18:07:48.380Z,7.37
2023-03-11T18:10:17.278Z,6.07
2023-03-11T18:12:48.508Z,9.20
2023-03-11T18:15:19.160Z,13.57
2023-03-11T18:17:49.229Z,8.03
2023-03-11T18:20:18.852Z,3.93
2023-03-11T18:22:47.380Z,4.37
2023-03-11T18:25:15.696Z,2.30
2023-03-11T18:27:44.645Z,2.23
2023-03-11T18:30:15.881Z,2.73
2023-03-11T18:32:44.854Z,2.47
2023-03-11T18:35:14.329Z,3.67
2023-03-11T18:37:42.567Z,3.03
2023-03-11T18:40:13.317Z,2.50
2023-03-11T18:42:41.794Z,3.20
2023-03-11T18:45:12.800Z,2.90
2023-03-11T18:47:42.493Z,3.27
2023-03-11T18:50:13.259Z,4.90
2023-03-11T18:52:41.492Z,6.57
2023-03-11T18:55:10.519Z,10.07
2023-03-11T18:57:40.433Z,18.50
2023-03-11T19:00:11.271Z,18.80
2023-03-11T19:02:39.635Z,15.63
2023-03-11T19:05:10.855Z,25.43
2023-03-11T19:07:39.461Z,28.00
2023-03-11T19:10:08.821Z,23.27
2023-03-11T19:12:38.200Z,12.20
2023-03-11T19:15:08.359Z,8.60
2023-03-11T19:17:36.695Z,9.50
2023-03-11T19:20:09.217Z,8.80
2023-03-11T19:22:37.822Z,8.53
2023-03-11T19:25:07.592Z,13.03
2023-03-11T19:27:39.086Z,15.07
2023-03-11T19:30:09.899Z,14.57
2023-03-11T19:32:38.516Z,11.57
2023-03-11T19:35:10.978Z,14.30
2023-03-11T19:37:39.537Z,12.93
2023-03-11T19:40:11.474Z,9.13
2023-03-11T19:42:40.352Z,8.87
2023-03-11T19:45:10.071Z,9.47
2023-03-11T19:47:39.139Z,8.70
2023-03-11T19:50:10.688Z,8.80
2023-03-11T19:52:39.327Z,7.80
2023-03-11T19:55:09.232Z,7.73
2023-03-11T19:57:37.753Z,8.83
2023-03-11T20:00:08.590Z,9.70
2023-03-11T20:02:37.553Z,9.03
2023-03-11T20:05:10.302Z,9.87
2023-03-11T20:07:38.841Z,12.73
2023-03-11T20:10:08.634Z,9.93
2023-03-11T20:12:38.168Z,8.07
2023-03-11T20:15:08.572Z,7.77
2023-03-11T20:17:37.061Z,7.63
2023-03-11T20:20:06.408Z,8.80
2023-03-11T20:22:37.387Z,6.87
2023-03-11T20:25:07.115Z,7.13
2023-03-11T20:27:35.584Z,10.67
2023-03-11T20:30:04.191Z,9.33
2023-03-11T20:32:32.747Z,7.67
2023-03-11T20:35:02.674Z,7.93
2023-03-11T20:37:32.899Z,10.90
2023-03-11T20:40:03.161Z,17.83
2023-03-11T20:42:34.321Z,17.50
2023-03-11T20:45:03.064Z,16.77
2023-03-11T20:47:31.561Z,18.80
2023-03-11T20:50:00.463Z,17.87
2023-03-11T20:52:35.779Z,11.40
2023-03-11T20:55:08.565Z,11.50
2023-03-11T20:57:38.481Z,16.17
2023-03-11T21:00:12.023Z,14.53
2023-03-11T21:02:44.454Z,11.17
2023-03-11T21:05:15.223Z,10.23
2023-03-11T21:07:44.854Z,7.73
2023-03-11T21:10:16.565Z,9.83
2023-03-11T21:12:45.056Z,9.53
2023-03-11T21:15:15.385Z,9.40
2023-03-11T21:17:43.941Z,8.40
2023-03-11T21:20:14.103Z,8.43
2023-03-11T21:22:43.958Z,7.90
2023-03-11T21:25:19.223Z,5.60
2023-03-11T21:27:48.359Z,6.10
2023-03-11T21:30:18.053Z,7.80
2023-03-11T21:32:47.907Z,5.07
2023-03-11T21:35:19.569Z,5.53
2023-03-11T21:37:48.860Z,4.83
2023-03-11T21:40:21.059Z,4.17
2023-03-11T21:42:49.616Z,3.53
2023-03-11T21:45:18.592Z,2.97
2023-03-11T21:47:47.698Z,2.63
2023-03-11T21:50:16.546Z,2.50
2023-03-11T21:53:10.813Z,2.60
2023-03-11T21:55:43.935Z,2.90
2023-03-11T21:58:12.659Z,2.83
2023-03-11T22:00:41.925Z,4.27
2023-03-11T22:03:11.315Z,3.63
2023-03-11T22:05:47.548Z,3.87
2023-03-11T22:08:18.586Z,5.33
2023-03-11T22:10:51.294Z,3.33
2023-03-11T22:13:40.040Z,3.40
2023-03-11T22:16:10.754Z,2.20
2023-03-11T22:18:39.545Z,2.70
2023-03-11T22:21:10.623Z,2.43
2023-03-11T22:24:04.560Z,2.57
2023-03-11T22:27:06.682Z,7.63
2023-03-11T22:29:40.101Z,7.47
2023-03-11T22:32:10.517Z,5.80
2023-03-11T22:34:39.057Z,4.80
2023-03-11T22:37:58.841Z,5.70
2023-03-11T22:40:30.142Z,5.47
2023-03-11T22:43:33.214Z,6.00
2023-03-11T22:46:06.342Z,5.23
2023-03-11T22:48:37.631Z,4.90
2023-03-11T22:51:27.846Z,5.23
2023-03-11T22:54:13.000Z,9.50
2023-03-11T22:57:10.078Z,6.97
2023-03-11T22:59:45.206Z,5.90
2023-03-11T23:02:14.860Z,4.17
2023-03-11T23:04:47.938Z,4.67
2023-03-11T23:08:06.146Z,4.43
2023-03-11T23:10:56.542Z,4.10
2023-03-11T23:13:27.083Z,8.40
2023-03-11T23:16:13.919Z,4.83
2023-03-11T23:19:00.536Z,3.73
2023-03-11T23:21:33.665Z,6.07
2023-03-11T23:24:06.262Z,6.43
2023-03-11T23:26:49.065Z,6.40
2023-03-11T23:29:21.729Z,5.10
2023-03-11T23:33:06.512Z,4.33
2023-03-11T23:35:44.141Z,2.87
2023-03-11T23:42:24.890Z,3.20
2023-03-11T23:46:00.780Z,3.83
2023-03-11T23:49:52.691Z,4.47
2023-03-11T23:52:43.080Z,2.43
2023-03-11T23:55:18.210Z,2.77
2023-03-11T23:57:48.862Z,2.83
